createdAt,value
2023-04-16T00:00:15.395Z,6.40
2023-04-16T00:05:05.175Z,6.30
2023-04-16T00:09:50.659Z,6.30
2023-04-16T00:14:43.789Z,6.20
2023-04-16T00:19:27.365Z,6.10
2023-04-16T00:24:17.761Z,6.10
2023-04-16T00:29:03.181Z,6.10
2023-04-16T00:33:50.913Z,6.10
2023-04-16T00:38:40.619Z,6.10
2023-04-16T00:43:28.165Z,6.00
2023-04-16T00:48:18.615Z,5.90
2023-04-16T00:53:04.226Z,5.90
2023-04-16T00:57:53.920Z,5.70
2023-04-16T01:02:42.770Z,5.60
2023-04-16T01:07:29.161Z,5.50
2023-04-16T01:12:17.186Z,5.50
2023-04-16T01:17:04.351Z,5.40
2023-04-16T01:21:54.730Z,5.30
2023-04-16T01:26:41.369Z,5.30
2023-04-16T01:31:25.743Z,5.40
2023-04-16T01:36:32.140Z,5.40
2023-04-16T01:41:20.643Z,5.40
2023-04-16T01:46:24.173Z,5.40
2023-04-16T01:51:13.722Z,5.40
2023-04-16T01:56:04.664Z,5.40
2023-04-16T02:00:49.596Z,5.50
2023-04-16T02:05:35.186Z,5.20
2023-04-16T02:10:23.979Z,5.10
2023-04-16T02:15:13.432Z,5.10
2023-04-16T02:20:06.057Z,5.10
2023-04-16T02:25:01.577Z,5.00
2023-04-16T02:29:55.651Z,4.80
2023-04-16T02:34:40.363Z,4.70
2023-04-16T02:39:58.510Z,4.70
2023-04-16T02:44:47.578Z,4.60
2023-04-16T02:49:37.088Z,4.70
2023-04-16T02:54:23.900Z,4.70
2023-04-16T02:59:13.747Z,4.80
2023-04-16T03:04:01.310Z,4.80
2023-04-16T03:08:47.916Z,4.80
2023-04-16T03:13:36.456Z,4.90
2023-04-16T03:18:25.611Z,4.80
2023-04-16T03:23:10.973Z,4.70
2023-04-16T03:28:01.042Z,4.70
2023-04-16T03:32:46.650Z,4.60
2023-04-16T03:37:34.982Z,4.40
2023-04-16T03:42:28.405Z,4.20
2023-04-16T03:47:32.396Z,4.10
2023-04-16T03:52:29.578Z,3.80
2023-04-16T03:57:21.124Z,3.80
2023-04-16T04:02:08.304Z,3.80
2023-04-16T04:06:54.842Z,3.90
2023-04-16T04:11:45.762Z,4.10
2023-04-16T04:16:34.534Z,4.10
2023-04-16T04:21:18.490Z,4.00
2023-04-16T04:26:11.732Z,3.90
2023-04-16T04:30:57.007Z,3.90
2023-04-16T04:35:45.327Z,4.10
2023-04-16T04:40:31.800Z,4.30
2023-04-16T04:45:18.590Z,4.40
2023-04-16T04:50:09.292Z,4.60
2023-04-16T04:54:58.439Z,4.80
2023-04-16T04:59:43.489Z,4.80
2023-04-16T05:04:33.108Z,4.80
2023-04-16T05:09:20.295Z,4.80
2023-04-16T05:14:09.255Z,4.90
2023-04-16T05:18:58.080Z,4.80
2023-04-16T05:23:43.421Z,4.90
2023-04-16T05:28:33.025Z,4.90
2023-04-16T05:33:20.932Z,4.90
2023-04-16T05:38:07.466Z,4.90
2023-04-16T05:42:54.682Z,4.80
2023-04-16T05:47:44.884Z,5.00
2023-04-16T05:52:50.829Z,4.90
2023-04-16T05:57:37.714Z,5.20
2023-04-16T06:02:22.703Z,5.50
2023-04-16T06:07:12.590Z,5.60
2023-04-16T06:12:01.489Z,5.80
2023-04-16T06:16:48.419Z,6.10
2023-04-16T06:21:35.221Z,6.40
2023-04-16T06:26:25.814Z,6.80
2023-04-16T06:31:10.859Z,7.30
2023-04-16T06:35:59.984Z,7.60
2023-04-16T06:40:47.570Z,8.00
2023-04-16T06:45:35.052Z,8.20
2023-04-16T06:50:28.710Z,8.10
2023-04-16T06:55:13.044Z,8.20
2023-04-16T07:00:02.667Z,8.60
2023-04-16T07:04:47.403Z,9.20
2023-04-16T07:09:36.017Z,9.70
2023-04-16T07:14:22.622Z,10.20
2023-04-16T07:19:11.962Z,10.80
2023-04-16T07:23:59.697Z,11.30
2023-04-16T07:29:07.889Z,11.80
2023-04-16T07:33:51.626Z,12.20
2023-04-16T07:38:40.199Z,12.40
2023-04-16T07:43:26.973Z,12.60
2023-04-16T07:48:30.844Z,12.80
2023-04-16T07:53:23.529Z,13.30
2023-04-16T07:58:09.851Z,13.70
2023-04-16T08:02:57.403Z,14.00
2023-04-16T08:08:01.271Z,13.90
2023-04-16T08:12:48.144Z,13.80
2023-04-16T08:17:38.106Z,13.80
2023-04-16T08:22:24.920Z,14.10
2023-04-16T08:27:19.179Z,14.30
2023-04-16T08:32:15.375Z,14.20
2023-04-16T08:37:03.879Z,14.40
2023-04-16T08:41:55.336Z,14.50
2023-04-16T08:46:42.817Z,14.50
2023-04-16T08:51:31.190Z,14.70
2023-04-16T08:56:16.299Z,14.90
2023-04-16T09:01:03.974Z,15.10
2023-04-16T09:05:51.704Z,15.20
2023-04-16T09:10:41.910Z,15.10
2023-04-16T09:15:27.578Z,15.20
2023-04-16T09:20:36.737Z,15.20
2023-04-16T09:25:22.671Z,14.80
2023-04-16T09:30:27.578Z,14.70
2023-04-16T09:35:11.066Z,14.40
2023-04-16T09:40:03.921Z,14.40
2023-04-16T09:44:52.364Z,14.50
2023-04-16T09:49:37.134Z,14.20
2023-04-16T09:54:21.447Z,14.10
2023-04-16T09:59:15.600Z,14.50
2023-04-16T10:04:00.944Z,14.90
2023-04-16T10:08:45.358Z,15.20
2023-04-16T10:13:30.997Z,15.70
2023-04-16T10:18:15.828Z,16.10
2023-04-16T10:23:01.034Z,16.00
2023-04-16T10:27:49.743Z,16.40
2023-04-16T10:32:40.098Z,16.70
2023-04-16T10:37:31.481Z,16.90
2023-04-16T10:42:17.127Z,16.60
2023-04-16T10:47:00.985Z,16.50
2023-04-16T10:51:55.241Z,16.70
2023-04-16T10:56:39.502Z,16.70
2023-04-16T11:01:32.872Z,16.50
2023-04-16T11:06:28.384Z,16.40
2023-04-16T11:11:20.362Z,15.80
2023-04-16T11:16:07.617Z,15.40
2023-04-16T11:20:53.029Z,15.60
2023-04-16T11:25:39.721Z,16.20
2023-04-16T11:30:30.078Z,16.70
2023-04-16T11:35:15.991Z,17.10
2023-04-16T11:40:10.610Z,17.10
2023-04-16T11:45:05.382Z,17.70
2023-04-16T11:49:55.589Z,17.50
2023-04-16T11:54:41.661Z,17.50
2023-04-16T11:59:33.404Z,17.30
2023-04-16T12:04:20.619Z,17.20
2023-04-16T12:09:25.514Z,17.80
2023-04-16T12:14:12.656Z,17.90
2023-04-16T12:19:05.352Z,17.90
2023-04-16T12:23:54.869Z,17.90
2023-04-16T12:28:39.370Z,17.30
2023-04-16T12:33:25.827Z,17.10
2023-04-16T12:38:15.297Z,17.10
2023-04-16T12:43:01.395Z,17.20
2023-04-16T12:47:52.710Z,17.60
2023-04-16T12:52:37.174Z,18.00
2023-04-16T12:57:28.981Z,17.80
2023-04-16T13:02:12.478Z,18.40
2023-04-16T13:07:02.036Z,18.20
2023-04-16T13:11:49.746Z,17.70
2023-04-16T13:16:38.979Z,17.50
2023-04-16T13:21:25.945Z,17.40
2023-04-16T13:26:16.340Z,17.30
2023-04-16T13:31:05.663Z,17.70
2023-04-16T13:35:51.238Z,17.70
2023-04-16T13:40:38.216Z,17.50
2023-04-16T13:45:28.218Z,16.60
2023-04-16T13:50:13.764Z,16.40
2023-04-16T13:55:02.683Z,16.20
2023-04-16T13:59:49.134Z,15.80
2023-04-16T14:04:39.033Z,15.40
2023-04-16T14:09:24.429Z,15.30
2023-04-16T14:14:13.989Z,15.50
2023-04-16T14:19:03.259Z,15.20
2023-04-16T14:23:48.524Z,14.90
2023-04-16T14:28:38.170Z,14.80
2023-04-16T14:33:39.386Z,14.90
2023-04-16T14:38:27.674Z,15.00
2023-04-16T14:43:16.815Z,14.90
2023-04-16T14:48:06.815Z,15.20
2023-04-16T14:53:11.053Z,15.30
2023-04-16T14:57:58.184Z,14.90
2023-04-16T15:02:45.018Z,14.40
2023-04-16T15:07:34.556Z,14.20
2023-04-16T15:12:21.797Z,14.40
2023-04-16T15:17:17.955Z,14.50
2023-04-16T15:22:14.856Z,14.70
2023-04-16T15:27:02.282Z,15.30
2023-04-16T15:31:49.581Z,15.20
2023-04-16T15:36:39.540Z,15.00
2023-04-16T15:41:26.014Z,14.90
2023-04-16T15:46:12.790Z,14.60
2023-04-16T15:51:00.560Z,14.50
2023-04-16T15:55:50.629Z,14.10
2023-04-16T16:00:37.514Z,13.80
2023-04-16T16:05:26.273Z,13.50
2023-04-16T16:10:14.411Z,13.50
2023-04-16T16:15:02.256Z,13.10
2023-04-16T16:19:49.713Z,12.60
2023-04-16T16:24:39.256Z,12.60
2023-04-16T16:29:27.025Z,12.30
2023-04-16T16:34:20.860Z,12.20
2023-04-16T16:39:16.823Z,12.00
2023-04-16T16:44:20.747Z,11.60
2023-04-16T16:49:09.820Z,11.40
2023-04-16T16:54:00.352Z,11.20
2023-04-16T16:58:46.763Z,10.90
2023-04-16T17:03:32.370Z,10.80
2023-04-16T17:08:19.528Z,10.60
2023-04-16T17:13:08.731Z,10.40
2023-04-16T17:17:57.196Z,10.10
2023-04-16T17:22:47.121Z,9.90
2023-04-16T17:27:34.962Z,10.00
2023-04-16T17:32:20.224Z,10.00
2023-04-16T17:37:09.973Z,10.00
2023-04-16T17:41:58.692Z,9.90
2023-04-16T17:46:46.661Z,9.80
2023-04-16T17:51:32.519Z,9.80
2023-04-16T17:56:21.925Z,9.80
2023-04-16T18:01:11.722Z,9.60
2023-04-16T18:05:57.648Z,9.50
2023-04-16T18:10:46.078Z,9.50
2023-04-16T18:15:32.601Z,9.40
2023-04-16T18:20:27.382Z,9.30
2023-04-16T18:25:33.907Z,9.30
2023-04-16T18:30:28.667Z,9.20
2023-04-16T18:35:18.611Z,9.20
2023-04-16T18:40:07.214Z,9.20
2023-04-16T18:44:54.511Z,9.20
2023-04-16T18:49:45.703Z,9.30
2023-04-16T18:54:29.327Z,9.20
2023-04-16T18:59:16.266Z,9.20
2023-04-16T19:04:08.769Z,9.10
2023-04-16T19:08:54.401Z,9.10
2023-04-16T19:13:41.430Z,9.10
2023-04-16T19:18:27.626Z,9.10
2023-04-16T19:23:19.774Z,9.00
2023-04-16T19:28:06.964Z,9.00
2023-04-16T19:32:55.403Z,9.00
2023-04-16T19:37:41.219Z,9.00
2023-04-16T19:43:03.727Z,9.00
2023-04-16T19:47:51.715Z,9.00
2023-04-16T19:52:39.257Z,9.00
2023-04-16T19:57:26.144Z,9.00
2023-04-16T20:02:17.640Z,9.00
2023-04-16T20:07:06.252Z,9.00
2023-04-16T20:12:39.223Z,8.90
2023-04-16T20:17:56.290Z,8.90
2023-04-16T20:23:54.168Z,8.90
2023-04-16T20:29:11.093Z,8.90
2023-04-16T20:34:49.479Z,8.80
2023-04-16T20:53:29.059Z,8.80
2023-04-16T21:05:44.345Z,8.80
2023-04-16T21:16:54.889Z,8.70
2023-04-16T21:22:43.819Z,8.70
2023-04-16T21:33:54.641Z,8.60
2023-04-16T21:46:48.994Z,8.60
2023-04-16T22:05:13.662Z,8.50
2023-04-16T22:10:32.964Z,8.50
2023-04-16T22:15:35.405Z,8.40
2023-04-16T22:21:28.737Z,8.50
2023-04-16T22:27:16.347Z,8.50
2023-04-16T22:32:42.478Z,8.40
2023-04-16T22:37:44.250Z,8.50
2023-04-16T22:42:33.942Z,8.50
2023-04-16T22:48:40.895Z,8.50
2023-04-16T22:54:20.095Z,8.40
2023-04-16T22:59:21.448Z,8.30
2023-04-16T23:10:33.778Z,8.30
2023-04-16T23:21:48.465Z,8.20
2023-04-16T23:34:31.725Z,8.20
2023-04-16T23:39:49.116Z,8.20
2023-04-16T23:51:03.010Z,8.10
